Time;durP1;ratioP1;P1;durP2;ratioP2;P2;SDS_P1;SDS_P2;PMS_P1;PMS_P2;Temp;Humidity;BMP_temperature;BMP_pressure;BME280_temperature;BME280_humidity;BME280_pressure;Samples;Min_cycle;Max_cycle;Signal;HPM_P1;HPM_P2
2021/12/01 00:00:33;;;;;;;34.63;18.27;;;8.30;99.90;;;;;;5023819;28;20041;-37
2021/12/01 00:02:59;;;;;;;36.70;18.40;;;8.20;99.90;;;;;;5013945;28;20120;-37
2021/12/01 00:05:29;;;;;;;36.33;18.77;;;8.40;99.90;;;;;;5018786;28;20060;-38
2021/12/01 00:07:55;;;;;;;34.60;17.37;;;8.40;99.90;;;;;;5001922;28;20179;-38
2021/12/01 00:10:23;;;;;;;31.10;17.13;;;8.50;99.90;;;;;;5015637;28;20049;-37
2021/12/01 00:12:50;;;;;;;31.63;17.33;;;8.50;99.90;;;;;;5012857;28;20041;-38
2021/12/01 00:15:16;;;;;;;37.57;18.23;;;8.60;99.90;;;;;;5018619;28;20106;-38
2021/12/01 00:17:42;;;;;;;38.37;19.23;;;8.70;99.90;;;;;;5013641;28;20472;-38
2021/12/01 00:20:11;;;;;;;41.93;20.97;;;8.70;99.90;;;;;;5026179;28;20396;-38
2021/12/01 00:22:37;;;;;;;49.70;22.50;;;8.80;99.90;;;;;;5023673;28;20052;-38
2021/12/01 00:25:05;;;;;;;38.63;20.87;;;8.90;99.90;;;;;;5022906;28;20049;-38
2021/12/01 00:27:31;;;;;;;41.80;22.47;;;8.90;99.90;;;;;;5014763;28;20417;-38
2021/12/01 00:29:57;;;;;;;43.03;22.20;;;8.90;99.90;;;;;;5023198;28;20045;-37
2021/12/01 00:32:23;;;;;;;46.00;23.27;;;9.00;99.90;;;;;;5023030;28;20056;-38
2021/12/01 00:34:48;;;;;;;50.30;24.27;;;9.00;99.90;;;;;;5025927;28;20037;-37
2021/12/01 00:37:14;;;;;;;39.13;23.90;;;9.10;99.90;;;;;;5014245;28;20156;-38
2021/12/01 00:39:40;;;;;;;42.77;21.73;;;9.10;99.90;;;;;;5025361;28;20041;-37
2021/12/01 00:42:06;;;;;;;46.20;23.27;;;9.10;99.90;;;;;;5024766;28;20049;-38
2021/12/01 00:44:34;;;;;;;43.23;22.70;;;9.20;99.90;;;;;;5025485;28;20125;-38
2021/12/01 00:49:34;;;;;;;39.47;21.80;;;9.20;99.90;;;;;;5023287;28;20442;-38
2021/12/01 00:51:59;;;;;;;32.05;16.00;;;9.20;99.90;;;;;;5024992;28;20059;-37
2021/12/01 00:54:25;;;;;;;46.73;22.20;;;9.30;99.90;;;;;;5019794;28;20049;-38
2021/12/01 00:56:51;;;;;;;39.37;21.77;;;9.30;99.90;;;;;;5013086;28;20408;-36
2021/12/01 00:59:17;;;;;;;46.90;22.07;;;9.30;99.90;;;;;;5022248;28;20084;-38
2021/12/01 01:01:45;;;;;;;37.70;20.20;;;9.30;99.90;;;;;;5024193;28;20049;-38
2021/12/01 01:04:10;;;;;;;36.33;18.93;;;9.30;99.90;;;;;;5023876;28;20041;-38
2021/12/01 01:06:37;;;;;;;32.90;18.23;;;9.30;99.90;;;;;;5014168;28;20044;-38
2021/12/01 01:09:05;;;;;;;29.70;16.93;;;9.30;99.90;;;;;;5020085;28;20037;-38
2021/12/01 01:17:08;;;;;;;25.83;15.57;;;9.40;99.90;;;;;;5009881;28;20477;-37
2021/12/01 01:19:37;;;;;;;30.40;16.10;;;9.40;99.90;;;;;;5018117;28;20045;-38
2021/12/01 01:22:04;;;;;;;29.10;15.27;;;9.40;99.90;;;;;;5020370;28;20183;-44
2021/12/01 01:24:30;;;;;;;30.50;13.63;;;9.40;99.90;;;;;;5020101;28;20084;-37
2021/12/01 01:26:56;;;;;;;26.77;13.37;;;9.40;99.90;;;;;;5009325;28;20084;-38
2021/12/01 01:29:23;;;;;;;30.00;13.03;;;9.40;99.90;;;;;;5020407;28;20053;-38
2021/12/01 01:31:51;;;;;;;25.47;12.13;;;9.40;99.90;;;;;;5019176;28;20431;-37
2021/12/01 01:34:17;;;;;;;24.47;12.17;;;9.50;99.90;;;;;;5020464;28;20054;-38
2021/12/01 01:36:43;;;;;;;27.03;11.53;;;9.50;99.90;;;;;;5013916;28;20037;-38
2021/12/01 01:39:09;;;;;;;25.60;11.10;;;9.60;99.90;;;;;;5024408;28;20570;-38
2021/12/01 01:41:35;;;;;;;24.10;11.77;;;9.50;99.90;;;;;;5022376;28;20037;-38
2021/12/01 01:44:00;;;;;;;25.77;10.90;;;9.50;99.90;;;;;;5022193;28;20041;-38
2021/12/01 01:46:34;;;;;;;28.30;10.80;;;9.60;99.90;;;;;;5013509;28;20041;-38
2021/12/01 01:49:09;;;;;;;21.13;10.20;;;9.50;99.90;;;;;;5024025;28;20069;-38
2021/12/01 01:51:35;;;;;;;25.63;8.97;;;9.50;99.90;;;;;;5018443;28;20420;-38
2021/12/01 01:54:01;;;;;;;19.13;8.77;;;9.60;99.90;;;;;;5021680;28;20069;-38
2021/12/01 01:56:27;;;;;;;16.47;7.50;;;9.60;99.90;;;;;;5013525;28;20400;-37
2021/12/01 01:58:54;;;;;;;19.47;7.83;;;9.50;99.90;;;;;;5008592;28;20085;-38
2021/12/01 02:03:57;;;;;;;22.10;7.47;;;9.60;99.90;;;;;;5019187;28;20041;-37
2021/12/01 02:06:23;;;;;;;19.57;6.27;;;9.60;99.90;;;;;;5013749;28;20068;-38
2021/12/01 02:08:56;;;;;;;15.97;6.07;;;9.60;99.90;;;;;;5023117;28;20424;-38
2021/12/01 02:11:23;;;;;;;16.67;5.30;;;9.60;99.90;;;;;;5022715;28;20825;-38
2021/12/01 02:13:50;;;;;;;14.63;5.17;;;9.60;99.90;;;;;;5021831;28;20118;-38
2021/12/01 02:16:17;;;;;;;16.40;5.07;;;9.60;99.90;;;;;;5013788;28;20180;-39
2021/12/01 02:18:43;;;;;;;13.43;4.17;;;9.70;99.90;;;;;;5022942;28;20041;-38
2021/12/01 02:21:29;;;;;;;15.97;4.13;;;9.70;99.90;;;;;;5021056;28;20489;-38
2021/12/01 02:24:02;;;;;;;16.77;3.93;;;9.70;99.90;;;;;;5020805;28;20037;-38
2021/12/01 02:26:30;;;;;;;15.87;3.87;;;9.60;99.90;;;;;;5012841;28;20334;-38
2021/12/01 02:28:59;;;;;;;12.93;3.23;;;9.60;99.90;;;;;;5021196;28;20045;-38
2021/12/01 02:31:28;;;;;;;12.53;3.00;;;9.70;99.90;;;;;;5023394;28;20045;-37
2021/12/01 02:33:55;;;;;;;10.80;2.70;;;9.80;99.90;;;;;;5022748;28;20038;-38
2021/12/01 02:36:21;;;;;;;7.73;1.90;;;9.70;99.90;;;;;;5013109;28;20053;-38
2021/12/01 02:38:48;;;;;;;7.57;1.47;;;9.70;99.90;;;;;;5023662;28;20508;-37
2021/12/01 02:41:15;;;;;;;6.57;1.30;;;9.70;99.90;;;;;;5022856;28;20408;-38
2021/12/01 02:43:43;;;;;;;5.13;1.40;;;9.60;99.90;;;;;;5023215;28;20042;-38
2021/12/01 02:46:09;;;;;;;6.43;1.60;;;9.60;99.90;;;;;;5013229;28;20049;-38
2021/12/01 02:48:41;;;;;;;6.00;1.50;;;9.70;99.90;;;;;;5035266;28;20077;-38
2021/12/01 02:51:09;;;;;;;10.00;2.20;;;9.60;99.90;;;;;;5023000;28;20334;-38
2021/12/01 02:53:36;;;;;;;12.43;2.63;;;9.60;99.90;;;;;;5023964;28;20104;-38
2021/12/01 02:56:04;;;;;;;10.43;2.20;;;9.70;99.90;;;;;;5022636;28;20076;-38
2021/12/01 02:58:32;;;;;;;14.00;2.97;;;9.70;99.90;;;;;;5011264;28;20041;-38
2021/12/01 03:01:02;;;;;;;20.17;3.43;;;9.70;99.90;;;;;;5021703;28;20046;-38
2021/12/01 03:03:28;;;;;;;15.20;2.83;;;9.60;99.90;;;;;;5018543;28;20080;-38
2021/12/01 03:05:56;;;;;;;14.20;2.63;;;9.70;99.90;;;;;;5023774;28;20469;-38
2021/12/01 03:08:22;;;;;;;13.07;2.90;;;9.70;99.90;;;;;;5009616;28;20560;-38
2021/12/01 03:10:51;;;;;;;12.80;3.10;;;9.70;99.90;;;;;;5021377;28;20372;-38
2021/12/01 03:13:18;;;;;;;13.90;2.60;;;9.60;99.90;;;;;;5022842;28;20041;-38
2021/12/01 03:15:44;;;;;;;15.50;2.70;;;9.70;99.90;;;;;;5026123;28;20472;-37
2021/12/01 03:18:11;;;;;;;13.50;2.27;;;9.70;99.90;;;;;;5013275;28;20081;-38
2021/12/01 03:20:37;;;;;;;15.07;2.80;;;9.70;99.90;;;;;;5027425;28;20045;-38
2021/12/01 03:23:03;;;;;;;10.00;2.70;;;9.70;99.90;;;;;;5025983;28;20488;-37
2021/12/01 03:25:29;;;;;;;10.10;2.20;;;9.70;99.90;;;;;;5024315;28;20132;-38
2021/12/01 03:27:55;;;;;;;10.97;2.30;;;9.70;99.90;;;;;;5015213;28;20491;-37
2021/12/01 03:30:22;;;;;;;10.17;2.10;;;9.70;99.90;;;;;;5027084;28;20136;-38
2021/12/01 03:32:48;;;;;;;8.47;2.20;;;9.70;99.90;;;;;;5024132;28;20045;-38
2021/12/01 03:35:15;;;;;;;9.47;1.80;;;9.70;99.90;;;;;;5027085;28;20046;-37
2021/12/01 03:37:42;;;;;;;10.90;2.50;;;9.70;99.90;;;;;;5016265;28;20385;-38
2021/12/01 03:40:10;;;;;;;11.80;2.10;;;9.70;99.90;;;;;;5025507;28;20038;-38
2021/12/01 03:42:36;;;;;;;14.00;3.17;;;9.70;99.90;;;;;;5025576;28;20417;-38
2021/12/01 03:45:04;;;;;;;16.73;3.13;;;9.70;99.90;;;;;;5026714;28;20091;-38
2021/12/01 03:47:29;;;;;;;14.23;2.90;;;9.70;99.90;;;;;;5014927;28;20048;-37
2021/12/01 03:49:55;;;;;;;13.33;3.20;;;9.80;99.90;;;;;;5026892;28;20041;-38
2021/12/01 03:52:23;;;;;;;19.10;3.50;;;9.70;99.90;;;;;;5025622;28;20054;-38
2021/12/01 03:54:49;;;;;;;20.73;3.70;;;9.70;99.90;;;;;;5025651;28;20136;-37
2021/12/01 03:57:16;;;;;;;20.23;4.07;;;9.70;99.90;;;;;;5015052;28;20136;-38
2021/12/01 03:59:42;;;;;;;17.80;3.73;;;9.70;99.90;;;;;;5026834;28;20065;-37
2021/12/01 04:02:08;;;;;;;24.63;4.10;;;9.70;99.90;;;;;;5025489;28;20041;-37
2021/12/01 04:04:34;;;;;;;24.80;4.37;;;9.80;99.90;;;;;;5026523;28;20424;-37
2021/12/01 04:07:00;;;;;;;21.73;4.43;;;9.70;99.90;;;;;;5027214;28;20053;-38
2021/12/01 04:09:27;;;;;;;20.07;4.10;;;9.70;99.90;;;;;;5023974;28;20050;-38
2021/12/01 04:11:52;;;;;;;24.43;4.30;;;9.70;99.90;;;;;;5024234;28;20056;-37
2021/12/01 04:14:18;;;;;;;24.30;4.30;;;9.60;99.90;;;;;;5026551;28;20405;-38
2021/12/01 04:16:44;;;;;;;20.43;4.67;;;9.60;99.90;;;;;;5002056;28;20069;-37
2021/12/01 04:19:09;;;;;;;16.73;3.77;;;9.70;99.90;;;;;;5025514;28;20045;-37
2021/12/01 04:21:36;;;;;;;21.37;3.57;;;9.70;99.90;;;;;;5025539;28;20055;-37
2021/12/01 04:24:01;;;;;;;16.27;3.07;;;9.60;99.90;;;;;;5024734;28;20058;-38
2021/12/01 04:26:31;;;;;;;17.73;2.83;;;9.60;99.90;;;;;;5015110;28;20445;-38
2021/12/01 04:28:57;;;;;;;15.10;2.67;;;9.60;99.90;;;;;;5025030;28;20060;-38
2021/12/01 04:31:23;;;;;;;15.00;2.87;;;9.60;99.90;;;;;;5023990;28;20416;-37
2021/12/01 04:33:49;;;;;;;16.50;2.87;;;9.60;99.90;;;;;;5024694;28;20053;-37
2021/12/01 04:36:17;;;;;;;14.97;3.07;;;9.60;99.90;;;;;;5016300;28;20046;-38
2021/12/01 04:38:43;;;;;;;14.23;3.13;;;9.60;99.90;;;;;;5024323;28;20041;-37
2021/12/01 04:41:09;;;;;;;18.97;2.83;;;9.60;99.90;;;;;;5023163;28;20032;-38
2021/12/01 04:43:37;;;;;;;7.87;2.13;;;9.70;99.90;;;;;;5024572;28;20467;-37
2021/12/01 04:46:04;;;;;;;11.00;2.47;;;9.50;99.90;;;;;;5026164;28;20049;-38
2021/12/01 04:48:30;;;;;;;10.03;2.20;;;9.50;99.90;;;;;;5015077;28;20410;-38
2021/12/01 04:50:57;;;;;;;10.00;1.93;;;9.50;99.90;;;;;;5025462;28;20049;-37
2021/12/01 04:53:25;;;;;;;10.43;2.17;;;9.50;99.90;;;;;;5022784;28;20063;-37
2021/12/01 04:55:51;;;;;;;12.27;2.07;;;9.50;99.90;;;;;;5024947;28;20041;-38
2021/12/01 04:58:17;;;;;;;7.27;1.80;;;9.60;99.90;;;;;;5010960;28;20049;-38
2021/12/01 05:00:42;;;;;;;8.93;1.97;;;9.60;99.90;;;;;;5022628;28;20522;-38
2021/12/01 05:03:08;;;;;;;8.10;1.60;;;9.60;99.90;;;;;;5011587;28;20041;-37
2021/12/01 05:05:34;;;;;;;6.23;1.50;;;9.50;99.90;;;;;;5022271;28;20037;-38
2021/12/01 05:07:59;;;;;;;5.00;1.40;;;9.60;99.90;;;;;;5002560;28;20556;-38
2021/12/01 05:10:25;;;;;;;5.60;1.80;;;9.60;99.90;;;;;;5022561;28;20077;-38
2021/12/01 05:12:50;;;;;;;5.50;1.53;;;9.60;99.90;;;;;;5016537;28;20054;-38
2021/12/01 05:15:16;;;;;;;4.63;1.57;;;9.50;99.90;;;;;;5019698;28;20037;-38
2021/12/01 05:17:42;;;;;;;4.30;1.33;;;9.40;99.90;;;;;;5012360;28;20045;-38
2021/12/01 05:20:11;;;;;;;3.83;1.13;;;9.50;99.90;;;;;;5024382;28;20516;-38
2021/12/01 05:22:37;;;;;;;2.03;1.00;;;9.60;99.90;;;;;;5023379;28;20111;-38
2021/12/01 05:25:04;;;;;;;2.10;0.90;;;9.50;99.90;;;;;;5023641;28;20048;-38
2021/12/01 05:27:30;;;;;;;1.43;0.70;;;9.50;99.90;;;;;;5011483;28;20452;-38
2021/12/01 05:29:56;;;;;;;1.23;0.50;;;9.50;99.90;;;;;;5024634;28;20057;-38
2021/12/01 05:32:21;;;;;;;0.70;0.50;;;9.70;99.90;;;;;;5023591;28;20041;-37
2021/12/01 05:34:48;;;;;;;1.27;0.40;;;9.50;99.90;;;;;;5024351;28;20103;-38
2021/12/01 05:37:13;;;;;;;0.40;0.20;;;9.60;99.90;;;;;;5008715;28;20041;-38
2021/12/01 05:39:41;;;;;;;0.40;0.20;;;9.50;99.90;;;;;;5020665;28;20546;-38
2021/12/01 05:42:08;;;;;;;0.30;0.10;;;9.50;99.90;;;;;;5005724;28;20073;-38
2021/12/01 05:44:34;;;;;;;0.93;0.30;;;9.50;99.90;;;;;;5024308;28;20038;-37
2021/12/01 05:47:01;;;;;;;0.50;0.20;;;9.50;99.90;;;;;;5013848;28;20053;-37
2021/12/01 05:49:27;;;;;;;0.50;0.20;;;9.50;99.90;;;;;;5037567;28;20053;-37
2021/12/01 05:51:52;;;;;;;0.40;0.10;;;9.50;99.90;;;;;;5023818;28;20053;-37
2021/12/01 05:54:19;;;;;;;1.80;0.10;;;9.40;99.90;;;;;;5023255;28;20065;-38
2021/12/01 05:56:44;;;;;;;1.30;0.10;;;9.40;99.90;;;;;;5011647;28;20081;-37
2021/12/01 05:59:10;;;;;;;0.90;0.20;;;9.40;99.90;;;;;;5023056;28;20548;-38
2021/12/01 06:01:36;;;;;;;0.97;0.20;;;9.50;99.90;;;;;;5021268;28;20103;-37
2021/12/01 06:04:02;;;;;;;0.60;0.30;;;9.30;99.90;;;;;;5023413;28;20476;-38
2021/12/01 06:06:28;;;;;;;2.07;0.60;;;9.30;99.90;;;;;;5013158;28;20685;-37
2021/12/01 06:08:55;;;;;;;0.50;0.40;;;9.40;99.90;;;;;;5023273;28;20098;-38
2021/12/01 06:11:22;;;;;;;0.90;0.60;;;9.30;99.90;;;;;;5023097;28;20133;-38
2021/12/01 06:13:51;;;;;;;1.23;0.70;;;9.30;99.90;;;;;;5022841;28;20353;-38
2021/12/01 06:16:20;;;;;;;1.23;0.60;;;9.30;99.90;;;;;;5012267;28;20460;-37
2021/12/01 06:18:46;;;;;;;1.37;0.93;;;9.30;99.90;;;;;;5022638;28;20110;-37
2021/12/01 06:21:11;;;;;;;1.67;0.93;;;9.30;99.90;;;;;;5023139;28;20029;-37
2021/12/01 06:23:37;;;;;;;1.40;1.03;;;9.20;99.90;;;;;;5023025;28;20185;-38
2021/12/01 06:26:03;;;;;;;3.10;1.43;;;9.30;99.90;;;;;;5023585;28;20496;-38
2021/12/01 06:28:28;;;;;;;2.33;1.80;;;9.20;99.90;;;;;;5012361;28;20041;-38
2021/12/01 06:30:54;;;;;;;3.17;2.00;;;9.20;99.90;;;;;;5029109;28;20045;-38
2021/12/01 06:33:20;;;;;;;3.17;1.67;;;9.30;99.90;;;;;;5021819;28;20258;-38
2021/12/01 06:35:49;;;;;;;1.90;1.50;;;9.20;99.90;;;;;;5024084;28;20049;-38
2021/12/01 06:38:16;;;;;;;1.90;1.30;;;9.30;99.90;;;;;;5013553;28;20053;-38
2021/12/01 06:40:42;;;;;;;3.03;1.60;;;9.20;99.90;;;;;;5023394;28;20041;-38
2021/12/01 06:43:08;;;;;;;2.30;1.33;;;9.20;99.90;;;;;;5021698;28;20046;-38
2021/12/01 06:45:33;;;;;;;2.20;1.50;;;9.20;99.90;;;;;;5017398;28;20046;-38
2021/12/01 06:47:59;;;;;;;2.47;1.43;;;9.10;99.90;;;;;;5015305;28;20049;-38
2021/12/01 06:50:25;;;;;;;1.87;1.13;;;9.10;99.90;;;;;;5040907;28;20149;-38
2021/12/01 06:52:51;;;;;;;1.43;1.33;;;9.10;99.90;;;;;;5025912;28;20045;-38
2021/12/01 06:55:17;;;;;;;2.23;1.40;;;9.10;99.90;;;;;;5026965;28;20046;-38
2021/12/01 06:57:43;;;;;;;2.00;1.43;;;9.10;99.90;;;;;;5015781;28;20045;-38
2021/12/01 07:00:12;;;;;;;2.37;1.30;;;9.10;99.90;;;;;;5025659;28;20095;-38
2021/12/01 07:02:38;;;;;;;2.70;1.10;;;9.10;99.90;;;;;;5026163;28;20049;-37
2021/12/01 07:05:05;;;;;;;2.30;1.30;;;9.10;99.90;;;;;;5027043;28;20045;-38
2021/12/01 07:07:31;;;;;;;2.83;1.10;;;9.10;99.90;;;;;;5015552;28;20060;-37
2021/12/01 07:09:56;;;;;;;1.20;1.10;;;9.10;99.90;;;;;;5040611;28;20054;-38
2021/12/01 07:12:23;;;;;;;3.07;1.40;;;9.10;99.90;;;;;;5024466;28;20166;-37
2021/12/01 07:14:49;;;;;;;2.60;1.77;;;9.10;99.90;;;;;;5025284;28;20053;-38
2021/12/01 07:17:15;;;;;;;3.37;2.33;;;9.10;99.90;;;;;;5011567;28;20034;-38
2021/12/01 07:19:40;;;;;;;5.70;2.40;;;9.10;99.90;;;;;;5024311;28;20052;-38
2021/12/01 07:22:06;;;;;;;5.27;2.50;;;9.10;99.90;;;;;;5022205;28;20087;-38
2021/12/01 07:24:32;;;;;;;4.97;2.60;;;9.10;99.90;;;;;;5024146;28;20045;-38
2021/12/01 07:26:58;;;;;;;6.40;2.23;;;9.20;99.90;;;;;;5013971;28;20050;-37
2021/12/01 07:29:25;;;;;;;4.77;2.20;;;9.10;99.90;;;;;;5024714;28;20225;-38
2021/12/01 07:31:52;;;;;;;4.13;2.27;;;9.10;99.90;;;;;;5024244;28;20401;-38
2021/12/01 07:34:18;;;;;;;3.50;2.73;;;9.20;99.90;;;;;;5018318;28;20124;-38
2021/12/01 07:36:44;;;;;;;5.73;3.03;;;9.20;99.90;;;;;;5006702;28;20188;-40
2021/12/01 07:39:10;;;;;;;6.90;3.10;;;9.20;99.90;;;;;;5013565;28;20125;-37
2021/12/01 07:41:35;;;;;;;7.37;3.80;;;9.20;99.90;;;;;;5024427;28;20048;-38
2021/12/01 07:44:01;;;;;;;6.13;2.93;;;9.20;99.90;;;;;;5025269;28;20635;-37
2021/12/01 07:46:27;;;;;;;12.47;3.67;;;9.20;99.90;;;;;;5013930;28;20514;-38
2021/12/01 07:48:52;;;;;;;8.87;3.63;;;9.20;99.90;;;;;;5024658;28;20195;-38
2021/12/01 07:51:18;;;;;;;10.63;3.20;;;9.20;99.90;;;;;;5023940;28;20045;-38
2021/12/01 07:53:44;;;;;;;9.27;3.50;;;9.30;99.90;;;;;;5024017;28;20199;-38
2021/12/01 07:56:10;;;;;;;10.43;3.50;;;9.30;99.90;;;;;;5017668;28;20045;-38
2021/12/01 07:58:36;;;;;;;9.47;4.13;;;9.30;99.90;;;;;;5020308;28;20477;-38
2021/12/01 08:01:02;;;;;;;10.93;3.70;;;9.30;99.90;;;;;;5023799;28;20113;-37
2021/12/01 08:03:27;;;;;;;8.00;3.60;;;9.30;99.90;;;;;;5020916;28;20088;-38
2021/12/01 08:05:53;;;;;;;11.77;3.40;;;9.30;99.90;;;;;;5023992;28;20049;-37
2021/12/01 08:08:19;;;;;;;8.00;2.77;;;9.30;99.90;;;;;;5012108;28;20052;-38
2021/12/01 08:10:46;;;;;;;6.30;2.73;;;9.30;99.90;;;;;;5024712;28;20037;-38
2021/12/01 08:13:11;;;;;;;8.13;2.83;;;9.30;99.90;;;;;;5037507;28;20505;-38
2021/12/01 08:15:37;;;;;;;10.93;2.97;;;9.30;99.90;;;;;;5024605;28;20084;-37
2021/12/01 08:18:03;;;;;;;9.27;2.80;;;9.30;99.90;;;;;;5012058;28;20152;-38
2021/12/01 08:20:29;;;;;;;7.47;3.10;;;9.30;99.90;;;;;;5024502;28;20046;-37
2021/12/01 08:22:54;;;;;;;6.97;3.30;;;9.30;99.90;;;;;;5023444;28;20049;-38
2021/12/01 08:25:21;;;;;;;7.33;2.20;;;9.30;99.90;;;;;;5024572;28;20407;-38
2021/12/01 08:27:47;;;;;;;4.73;2.13;;;9.30;99.90;;;;;;5012907;28;20132;-38
2021/12/01 08:30:13;;;;;;;6.37;2.50;;;9.30;99.90;;;;;;5024532;28;20045;-38
2021/12/01 08:32:45;;;;;;;7.50;1.77;;;9.40;99.90;;;;;;5023096;28;20068;-38
2021/12/01 08:35:11;;;;;;;5.10;1.53;;;9.30;99.90;;;;;;5023446;28;20416;-38
2021/12/01 08:37:37;;;;;;;8.53;2.03;;;9.30;99.90;;;;;;5013391;28;20088;-38
2021/12/01 08:40:03;;;;;;;11.33;2.27;;;9.20;99.90;;;;;;5021715;28;20085;-38
2021/12/01 08:42:29;;;;;;;11.70;1.70;;;9.20;99.90;;;;;;5021581;28;20094;-38
2021/12/01 08:44:54;;;;;;;10.67;2.03;;;9.20;99.90;;;;;;5012598;28;20517;-37
2021/12/01 08:47:23;;;;;;;12.93;2.30;;;9.10;99.90;;;;;;5010139;28;20041;-38
2021/12/01 08:49:49;;;;;;;16.13;2.70;;;9.10;99.90;;;;;;5023503;28;20504;-38
2021/12/01 08:52:14;;;;;;;14.93;2.67;;;9.10;99.90;;;;;;5003336;28;20055;-37
2021/12/01 08:54:40;;;;;;;12.30;2.63;;;9.00;99.90;;;;;;5024251;28;20404;-38
2021/12/01 08:57:06;;;;;;;16.57;2.43;;;9.10;99.90;;;;;;5011911;28;20467;-38
2021/12/01 08:59:33;;;;;;;12.23;2.80;;;9.00;99.90;;;;;;5025097;28;20129;-37
2021/12/01 09:02:00;;;;;;;14.07;2.17;;;9.00;99.90;;;;;;5022032;28;20056;-38
2021/12/01 09:04:26;;;;;;;12.20;2.43;;;9.00;99.90;;;;;;5023520;28;20314;-38
2021/12/01 09:06:52;;;;;;;11.60;2.43;;;8.90;99.90;;;;;;5012701;28;20046;-38
2021/12/01 09:09:18;;;;;;;12.37;2.53;;;8.90;99.90;;;;;;5022566;28;20284;-37
2021/12/01 09:11:52;;;;;;;13.50;2.20;;;8.90;99.90;;;;;;5019290;28;20048;-37
2021/12/01 09:14:20;;;;;;;10.27;2.03;;;8.90;99.90;;;;;;5022867;28;20592;-37
2021/12/01 09:16:47;;;;;;;11.43;2.07;;;8.90;99.90;;;;;;5009706;28;20619;-38
2021/12/01 09:19:13;;;;;;;10.93;2.10;;;8.90;99.90;;;;;;5022392;28;20128;-38
2021/12/01 09:21:39;;;;;;;10.60;1.77;;;8.80;99.90;;;;;;5023014;28;20045;-38
2021/12/01 09:24:05;;;;;;;10.83;1.97;;;8.80;99.90;;;;;;5020633;28;20045;-38
2021/12/01 09:26:32;;;;;;;7.60;1.70;;;8.70;99.90;;;;;;5009198;28;20053;-38
2021/12/01 09:28:58;;;;;;;12.37;1.83;;;8.70;99.90;;;;;;5022312;28;20154;-38
2021/12/01 09:31:23;;;;;;;14.27;1.83;;;8.70;99.90;;;;;;5021730;28;20060;-38
2021/12/01 09:33:49;;;;;;;11.10;2.07;;;8.60;99.90;;;;;;5022960;28;20124;-38
2021/12/01 09:36:16;;;;;;;12.00;2.10;;;8.60;99.90;;;;;;5023252;28;20037;-38
2021/12/01 09:38:43;;;;;;;13.47;2.20;;;8.60;99.90;;;;;;5022730;28;20049;-38
2021/12/01 09:41:10;;;;;;;13.93;2.40;;;8.70;99.90;;;;;;5021362;28;20045;-37
2021/12/01 09:43:36;;;;;;;15.77;2.27;;;8.60;99.90;;;;;;5020697;28;20052;-37
2021/12/01 09:46:04;;;;;;;14.00;2.90;;;8.60;99.90;;;;;;5023868;28;20045;-38
2021/12/01 09:48:33;;;;;;;9.40;2.27;;;8.60;99.90;;;;;;5011736;28;20419;-37
2021/12/01 09:50:59;;;;;;;11.77;2.07;;;8.60;99.90;;;;;;5021136;28;20129;-38
2021/12/01 09:53:25;;;;;;;12.63;2.00;;;8.60;99.90;;;;;;5021683;28;20076;-38
2021/12/01 09:55:50;;;;;;;7.80;1.77;;;8.60;99.90;;;;;;5038738;28;20506;-37
2021/12/01 09:58:19;;;;;;;12.03;2.30;;;8.60;99.90;;;;;;5012740;28;20053;-38
2021/12/01 10:00:48;;;;;;;14.90;2.30;;;8.60;99.90;;;;;;5015834;28;20095;-38
2021/12/01 10:03:14;;;;;;;13.93;2.50;;;8.60;99.90;;;;;;5017090;28;20041;-37
2021/12/01 10:05:49;;;;;;;16.57;2.63;;;8.70;99.90;;;;;;5015475;28;20467;-38
2021/12/01 10:08:20;;;;;;;21.03;3.40;;;8.70;99.90;;;;;;5010055;28;20049;-38
2021/12/01 10:10:47;;;;;;;21.58;3.20;;;8.80;99.90;;;;;;5017711;28;20483;-38
2021/12/01 10:13:13;;;;;;;18.13;3.40;;;8.80;99.90;;;;;;5021345;28;20049;-37
2021/12/01 10:15:39;;;;;;;19.07;3.20;;;8.80;99.90;;;;;;5019849;28;20048;-38
2021/12/01 10:18:22;;;;;;;21.07;3.40;;;8.90;99.90;;;;;;5009729;28;20053;-38
2021/12/01 10:21:04;;;;;;;19.80;2.97;;;8.90;99.90;;;;;;5013173;28;20114;-38
2021/12/01 10:23:30;;;;;;;19.48;3.78;;;8.90;99.90;;;;;;5018645;28;20053;-38
2021/12/01 10:26:05;;;;;;;15.80;3.27;;;8.90;99.90;;;;;;5016258;28;20052;-38
2021/12/01 10:28:36;;;;;;;15.27;3.13;;;8.90;99.90;;;;;;5006659;28;20065;-38
2021/12/01 10:31:02;;;;;;;16.70;3.58;;;8.90;99.90;;;;;;5019354;28;20038;-37
2021/12/01 10:33:29;;;;;;;12.77;2.67;;;8.80;99.90;;;;;;5019971;28;20054;-38
2021/12/01 10:35:57;;;;;;;12.87;2.50;;;8.80;99.90;;;;;;5018258;28;20057;-38
2021/12/01 10:38:28;;;;;;;15.47;3.37;;;8.80;99.90;;;;;;5007602;28;20057;-37
2021/12/01 10:41:09;;;;;;;20.37;3.13;;;8.80;99.90;;;;;;5020202;28;20421;-38
2021/12/01 10:43:38;;;;;;;15.63;2.77;;;8.70;99.90;;;;;;5021300;28;20053;-38
2021/12/01 10:46:09;;;;;;;14.37;2.87;;;8.70;99.90;;;;;;5022316;28;20492;-38
2021/12/01 10:48:35;;;;;;;14.88;3.30;;;8.60;99.90;;;;;;5016362;28;20054;-37
2021/12/01 10:51:01;;;;;;;21.60;3.57;;;8.70;99.90;;;;;;5019613;28;20034;-38
2021/12/01 10:53:28;;;;;;;18.53;3.27;;;8.80;99.90;;;;;;5019738;28;20050;-38
2021/12/01 10:56:03;;;;;;;16.30;3.30;;;8.80;99.90;;;;;;5020947;28;20504;-37
2021/12/01 10:58:41;;;;;;;21.40;3.43;;;8.80;99.90;;;;;;5008632;28;20053;-38
2021/12/01 11:01:21;;;;;;;18.33;3.03;;;8.80;99.90;;;;;;5019579;28;20050;-38
2021/12/01 11:03:47;;;;;;;17.13;3.40;;;8.80;99.90;;;;;;5018168;28;20083;-37
2021/12/01 11:06:21;;;;;;;17.40;3.30;;;8.80;99.90;;;;;;5009995;28;20488;-39
2021/12/01 11:08:55;;;;;;;16.20;3.03;;;8.90;99.90;;;;;;5018504;28;20049;-38
2021/12/01 11:11:24;;;;;;;17.57;3.33;;;8.80;99.90;;;;;;5018677;28;20057;-37
2021/12/01 11:13:50;;;;;;;14.07;2.83;;;8.80;99.90;;;;;;5021024;28;20163;-38
2021/12/01 11:16:18;;;;;;;17.50;3.17;;;8.80;99.90;;;;;;5010189;28;20501;-39
2021/12/01 11:18:47;;;;;;;20.77;3.83;;;8.80;99.90;;;;;;5018779;28;20037;-38
2021/12/01 11:21:22;;;;;;;22.07;3.70;;;8.80;99.90;;;;;;5018891;28;20417;-37
2021/12/01 11:23:56;;;;;;;18.63;4.73;;;8.90;99.90;;;;;;5018906;28;20065;-38
2021/12/01 11:26:24;;;;;;;25.67;4.03;;;8.80;99.90;;;;;;5010487;28;20056;-38
2021/12/01 11:29:04;;;;;;;26.90;4.70;;;8.90;99.90;;;;;;5018825;28;20065;-38
2021/12/01 11:31:41;;;;;;;35.17;5.50;;;8.80;99.90;;;;;;5018906;28;20420;-37
2021/12/01 11:34:13;;;;;;;28.37;5.47;;;8.70;99.90;;;;;;5019608;28;20095;-37
2021/12/01 11:36:47;;;;;;;27.03;5.43;;;8.60;99.90;;;;;;5011914;28;20709;-37
2021/12/01 11:39:20;;;;;;;31.80;5.80;;;8.60;99.90;;;;;;5023136;28;20045;-38
2021/12/01 11:41:47;;;;;;;32.47;6.03;;;8.70;99.90;;;;;;5023849;28;20044;-37
2021/12/01 11:44:14;;;;;;;27.27;5.20;;;8.40;99.90;;;;;;5022571;28;20504;-35
2021/12/01 11:46:40;;;;;;;25.33;5.07;;;8.40;99.90;;;;;;5013829;28;20046;-38
2021/12/01 11:49:09;;;;;;;24.17;5.43;;;8.30;99.90;;;;;;5022415;28;20624;-37
2021/12/01 11:51:46;;;;;;;27.13;5.40;;;8.20;99.90;;;;;;5022357;28;20527;-37
2021/12/01 11:54:20;;;;;;;31.20;5.10;;;8.20;99.90;;;;;;5022707;28;20049;-35
2021/12/01 11:56:55;;;;;;;29.30;5.30;;;8.10;99.90;;;;;;5011557;28;20034;-36
2021/12/01 11:59:26;;;;;;;33.80;5.83;;;8.20;99.90;;;;;;5020012;28;20053;-37
2021/12/01 12:02:00;;;;;;;21.98;4.57;;;8.00;99.90;;;;;;5022556;28;20480;-37
2021/12/01 12:04:45;;;;;;;29.33;5.40;;;8.00;99.90;;;;;;5020427;28;20657;-37
2021/12/01 12:07:15;;;;;;;25.67;4.73;;;8.00;99.90;;;;;;5010782;28;20128;-35
2021/12/01 12:09:42;;;;;;;28.43;4.97;;;8.00;99.90;;;;;;5021697;28;20072;-36
2021/12/01 12:12:20;;;;;;;22.33;4.70;;;8.00;99.90;;;;;;5021483;28;20196;-37
2021/12/01 12:14:46;;;;;;;27.50;5.70;;;8.00;99.90;;;;;;5021960;28;20041;-37
2021/12/01 12:17:19;;;;;;;20.57;4.83;;;8.00;99.90;;;;;;5010948;28;20513;-37
2021/12/01 12:20:27;;;;;;;22.27;4.50;;;8.00;99.90;;;;;;5021779;28;20723;-36
2021/12/01 12:22:55;;;;;;;19.87;4.33;;;8.00;99.90;;;;;;4991688;28;20052;-37
2021/12/01 12:25:36;;;;;;;23.70;4.30;;;8.00;99.90;;;;;;5022475;28;20053;-37
2021/12/01 12:28:20;;;;;;;21.65;3.88;;;8.00;99.90;;;;;;5012349;28;20555;-36
2021/12/01 12:30:46;;;;;;;16.80;4.10;;;8.00;99.90;;;;;;5022215;28;20120;-37
2021/12/01 12:33:24;;;;;;;16.23;3.03;;;8.00;99.90;;;;;;5021297;28;20579;-37
2021/12/01 12:35:57;;;;;;;17.97;3.40;;;8.00;99.90;;;;;;5020477;28;20045;-37
2021/12/01 12:38:23;;;;;;;18.63;3.60;;;7.90;99.90;;;;;;5012650;28;20071;-37
2021/12/01 12:41:00;;;;;;;22.97;4.10;;;8.00;99.90;;;;;;5022105;28;20511;-37
2021/12/01 12:43:28;;;;;;;14.43;2.90;;;7.80;99.90;;;;;;5021619;28;20045;-37
2021/12/01 12:46:12;;;;;;;21.50;3.63;;;7.70;99.90;;;;;;5022468;28;20057;-37
2021/12/01 12:48:45;;;;;;;23.03;3.97;;;7.80;99.90;;;;;;5017207;28;20045;-37
2021/12/01 12:51:18;;;;;;;17.67;3.17;;;7.70;99.90;;;;;;5022030;28;20521;-37
2021/12/01 12:54:15;;;;;;;12.40;2.93;;;7.80;99.90;;;;;;5033130;28;20076;-37
2021/12/01 12:56:47;;;;;;;15.87;3.17;;;7.70;99.90;;;;;;5001731;28;20137;-39
2021/12/01 12:59:33;;;;;;;17.57;3.40;;;7.70;99.90;;;;;;5022215;28;20052;-38
2021/12/01 13:02:09;;;;;;;15.77;3.43;;;7.70;99.90;;;;;;5020917;28;20220;-37